createdAt,value
2022-08-11T00:01:23.412Z,28.50
2022-08-11T00:03:59.766Z,28.60
2022-08-11T00:06:33.531Z,28.80
2022-08-11T00:09:01.835Z,28.80
2022-08-11T00:11:45.078Z,28.90
2022-08-11T00:14:36.897Z,29.00
2022-08-11T00:17:06.587Z,29.20
2022-08-11T00:20:13.697Z,28.50
2022-08-11T00:22:26.046Z,29.00
2022-08-11T00:24:57.359Z,29.10
2022-08-11T00:27:33.689Z,29.20
2022-08-11T00:30:00.903Z,29.30
2022-08-11T00:32:29.034Z,29.30
2022-08-11T00:35:52.506Z,29.40
2022-08-11T00:37:49.939Z,29.50
2022-08-11T00:40:53.436Z,29.50
2022-08-11T00:43:39.363Z,29.60
2022-08-11T00:46:27.250Z,29.70
2022-08-11T00:49:04.243Z,29.80
2022-08-11T00:52:04.440Z,29.90
2022-08-11T00:54:38.848Z,29.90
2022-08-11T00:57:36.214Z,29.90
2022-08-11T01:00:19.018Z,30.00
2022-08-11T01:03:18.359Z,29.50
2022-08-11T01:06:16.203Z,30.10
2022-08-11T01:08:59.278Z,30.30
2022-08-11T01:11:35.262Z,30.30
2022-08-11T01:14:39.978Z,30.10
2022-08-11T01:17:48.404Z,30.40
2022-08-11T01:21:03.449Z,30.50
2022-08-11T01:23:49.132Z,30.60
2022-08-11T01:26:34.621Z,30.70
2022-08-11T01:29:39.425Z,30.60
2022-08-11T01:32:40.227Z,30.90
2022-08-11T01:35:34.329Z,31.10
2022-08-11T01:38:53.078Z,31.20
2022-08-11T01:41:52.094Z,31.40
2022-08-11T01:44:56.754Z,31.20
2022-08-11T01:47:53.475Z,31.60
2022-08-11T01:50:54.813Z,31.60
2022-08-11T01:53:43.174Z,31.80
2022-08-11T01:56:28.291Z,31.80
2022-08-11T01:59:14.026Z,32.00
2022-08-11T02:01:46.874Z,31.90
2022-08-11T02:04:25.846Z,32.00
2022-08-11T02:07:21.501Z,32.10
2022-08-11T02:10:23.450Z,32.40
2022-08-11T02:13:10.864Z,32.30
2022-08-11T02:15:46.233Z,32.70
2022-08-11T02:18:22.088Z,32.80
2022-08-11T02:21:21.327Z,32.90
2022-08-11T02:24:06.973Z,33.10
2022-08-11T02:26:44.712Z,33.30
2022-08-11T02:29:38.304Z,33.20
2022-08-11T02:32:40.021Z,33.50
2022-08-11T02:35:19.254Z,33.70
2022-08-11T02:37:50.612Z,33.70
2022-08-11T02:44:29.732Z,34.00
2022-08-11T02:47:14.614Z,34.00
2022-08-11T02:50:02.697Z,34.00
2022-08-11T02:52:59.118Z,33.90
2022-08-11T02:55:50.940Z,34.20
2022-08-11T02:59:11.329Z,34.40
2022-08-11T03:01:49.312Z,34.50
2022-08-11T03:04:57.555Z,34.40
2022-08-11T03:07:55.431Z,34.70
2022-08-11T03:10:42.882Z,34.90
2022-08-11T03:13:45.414Z,34.80
2022-08-11T03:16:40.129Z,35.10
2022-08-11T03:19:30.413Z,35.10
2022-08-11T03:22:03.269Z,35.40
2022-08-11T03:24:57.713Z,35.10
2022-08-11T03:27:32.498Z,35.50
2022-08-11T03:30:16.648Z,35.50
2022-08-11T03:33:11.332Z,35.80
2022-08-11T03:35:49.450Z,35.90
2022-08-11T03:38:17.040Z,35.90
2022-08-11T03:42:03.368Z,35.80
2022-08-11T03:44:34.311Z,36.10
2022-08-11T03:47:20.119Z,36.10
2022-08-11T03:49:57.680Z,36.10
2022-08-11T05:44:21.810Z,40.60
2022-08-11T05:47:19.663Z,40.80
2022-08-11T05:56:29.314Z,41.60
2022-08-11T05:59:00.359Z,41.50
2022-08-11T06:01:37.601Z,41.50
2022-08-11T06:04:16.746Z,41.80
2022-08-11T06:06:55.888Z,41.70
2022-08-11T06:09:42.538Z,41.90
2022-08-11T06:12:23.914Z,42.00
2022-08-11T06:14:54.919Z,42.00
2022-08-11T06:17:39.213Z,42.00
2022-08-11T06:20:12.495Z,42.10
2022-08-11T06:22:42.649Z,42.20
2022-08-11T06:25:11.846Z,42.30
2022-08-11T06:27:56.603Z,42.50
2022-08-11T06:30:55.909Z,42.50
2022-08-11T06:33:33.765Z,42.70
2022-08-11T06:36:08.092Z,42.80
2022-08-11T06:38:56.360Z,42.70
2022-08-11T06:41:31.986Z,42.70
2022-08-11T06:44:52.022Z,42.50
2022-08-11T06:47:24.078Z,42.50
2022-08-11T06:50:17.518Z,42.30
2022-08-11T07:16:38.114Z,41.40
2022-08-11T07:36:13.029Z,37.30
2022-08-11T07:38:46.111Z,36.40
2022-08-11T07:41:16.255Z,35.90
2022-08-11T07:43:49.126Z,35.50
2022-08-11T07:46:53.069Z,35.00
2022-08-11T07:49:39.483Z,34.40
2022-08-11T07:52:27.832Z,33.70
2022-08-11T07:54:58.031Z,32.80
2022-08-11T07:58:14.813Z,32.50
2022-08-11T08:01:21.294Z,32.60
2022-08-11T08:04:09.622Z,31.30
2022-08-11T08:06:56.728Z,31.00
2022-08-11T08:09:43.697Z,30.50
2022-08-11T08:12:30.901Z,30.00
2022-08-11T08:15:16.797Z,29.70
2022-08-11T08:18:20.694Z,29.60
2022-08-11T08:20:52.347Z,28.90
2022-08-11T08:23:35.372Z,28.80
2022-08-11T08:26:05.941Z,28.30
2022-08-11T08:28:46.794Z,28.70
2022-08-11T08:31:15.406Z,28.60
2022-08-11T08:33:43.085Z,28.40
2022-08-11T08:36:18.734Z,28.30
2022-08-11T08:38:50.515Z,28.00
2022-08-11T08:41:23.737Z,27.90
2022-08-11T08:43:53.567Z,28.10
2022-08-11T08:46:26.727Z,27.50
2022-08-11T08:48:55.222Z,28.00
2022-08-11T08:52:00.894Z,28.10
2022-08-11T08:54:37.144Z,28.10
2022-08-11T08:57:06.768Z,27.90
2022-08-11T08:59:48.792Z,28.70
2022-08-11T09:02:20.063Z,27.80
2022-08-11T09:05:09.999Z,27.70
2022-08-11T09:07:40.699Z,28.20
2022-08-11T09:10:11.296Z,27.80
2022-08-11T09:12:42.671Z,28.00
2022-08-11T09:15:12.682Z,27.50
2022-08-11T09:17:49.123Z,28.10
2022-08-11T09:20:34.266Z,27.90
2022-08-11T09:26:34.072Z,28.30
2022-08-11T09:29:04.802Z,27.90
2022-08-11T09:31:40.453Z,27.40
2022-08-11T09:34:15.553Z,27.70
2022-08-11T09:37:03.074Z,27.70
2022-08-11T09:39:50.268Z,27.90
2022-08-11T09:42:23.206Z,27.40
2022-08-11T09:44:54.010Z,27.30
2022-08-11T09:47:32.501Z,26.60
2022-08-11T09:50:02.245Z,25.70
2022-08-11T09:52:34.704Z,25.80
2022-08-11T09:55:18.302Z,25.60
2022-08-11T09:58:10.913Z,24.40
2022-08-11T10:00:50.506Z,24.50
2022-08-11T10:03:38.242Z,24.30
2022-08-11T10:06:34.475Z,24.20
2022-08-11T10:09:06.383Z,24.10
2022-08-11T10:11:38.778Z,23.10
2022-08-11T10:14:32.846Z,22.50
2022-08-11T10:17:07.061Z,22.40
2022-08-11T10:19:38.858Z,22.30
2022-08-11T10:22:26.861Z,22.20
2022-08-11T10:25:39.222Z,21.50
2022-08-11T10:28:28.350Z,21.30
2022-08-11T10:31:37.641Z,21.00
2022-08-11T10:34:16.401Z,20.20
2022-08-11T10:36:48.680Z,20.30
2022-08-11T10:39:19.160Z,19.90
2022-08-11T10:42:08.862Z,19.30
2022-08-11T10:44:40.229Z,19.30
2022-08-11T10:47:28.828Z,19.40
2022-08-11T10:50:15.801Z,18.60
2022-08-11T10:53:03.715Z,18.50
2022-08-11T10:55:49.888Z,18.20
2022-08-11T10:58:45.542Z,18.00
2022-08-11T11:01:14.819Z,18.00
2022-08-11T11:03:43.370Z,17.30
2022-08-11T11:06:44.946Z,16.90
2022-08-11T11:09:33.674Z,16.50
2022-08-11T11:12:42.871Z,16.60
2022-08-11T11:15:29.952Z,16.50
2022-08-11T11:18:20.263Z,16.20
2022-08-11T11:21:38.019Z,15.80
2022-08-11T11:28:13.527Z,15.70
2022-08-11T11:31:15.660Z,15.10
2022-08-11T11:34:29.344Z,15.30
2022-08-11T11:41:22.969Z,15.00
2022-08-11T11:44:25.433Z,14.60
2022-08-11T11:46:57.059Z,14.30
2022-08-11T11:49:53.353Z,14.00
2022-08-11T11:52:24.097Z,13.80
2022-08-11T11:55:09.171Z,13.90
2022-08-11T11:58:02.696Z,13.90
2022-08-11T12:00:52.847Z,14.30
2022-08-11T12:03:21.347Z,13.60
2022-08-11T12:05:53.400Z,13.40
2022-08-11T12:08:39.279Z,13.40
2022-08-11T12:11:28.817Z,13.30
2022-08-11T12:16:57.440Z,13.10
2022-08-11T12:19:28.920Z,12.90
2022-08-11T12:22:45.995Z,13.00
2022-08-11T12:26:10.092Z,13.00
2022-08-11T12:28:34.003Z,13.00
2022-08-11T12:52:50.693Z,12.00
2022-08-11T12:55:43.235Z,12.20
2022-08-11T12:58:30.545Z,12.10
2022-08-11T13:01:16.613Z,12.30
2022-08-11T13:05:06.652Z,12.10
2022-08-11T13:07:08.134Z,11.70
2022-08-11T13:10:16.714Z,11.90
2022-08-11T13:12:49.357Z,11.90
2022-08-11T13:16:09.312Z,11.70
2022-08-11T14:07:35.846Z,11.80
2022-08-11T14:14:53.084Z,11.40
2022-08-11T14:17:38.315Z,11.50
2022-08-11T14:20:39.030Z,11.40
2022-08-11T14:26:13.499Z,11.30
2022-08-11T14:29:25.805Z,11.40
2022-08-11T14:31:57.793Z,11.30
2022-08-11T14:38:22.542Z,11.50
2022-08-11T14:41:09.118Z,11.80
2022-08-11T14:44:14.018Z,11.70
2022-08-11T14:47:24.562Z,11.50
2022-08-11T14:50:09.977Z,11.30
2022-08-11T14:53:05.415Z,11.50
2022-08-11T14:59:06.189Z,11.50
2022-08-11T15:02:00.194Z,11.40
2022-08-11T15:04:46.257Z,11.50
2022-08-11T15:07:16.871Z,11.40
2022-08-11T15:10:11.904Z,11.20
2022-08-11T15:12:49.085Z,11.00
2022-08-11T15:16:05.603Z,10.90
2022-08-11T15:18:51.899Z,11.10
2022-08-11T15:21:50.763Z,11.30
2022-08-11T15:24:56.201Z,11.40
2022-08-11T15:27:44.394Z,11.50
2022-08-11T15:30:33.012Z,11.50
2022-08-11T15:33:30.972Z,10.90
2022-08-11T15:36:17.999Z,10.30
2022-08-11T15:38:55.519Z,10.10
2022-08-11T15:41:54.393Z,10.00
2022-08-11T15:45:04.881Z,10.00
2022-08-11T15:47:44.159Z,10.20
2022-08-11T15:50:17.770Z,10.40
2022-08-11T15:52:52.636Z,9.30
2022-08-11T15:55:21.284Z,10.70
2022-08-11T15:58:09.453Z,10.90
2022-08-11T16:01:02.022Z,11.10
2022-08-11T16:04:07.782Z,11.30
2022-08-11T16:06:57.921Z,11.50
2022-08-11T16:09:47.561Z,11.70
2022-08-11T16:12:26.060Z,12.10
2022-08-11T16:15:15.197Z,12.10
2022-08-11T16:18:01.308Z,12.30
2022-08-11T16:20:29.461Z,12.60
2022-08-11T16:23:02.699Z,12.60
2022-08-11T16:27:03.234Z,12.90
2022-08-11T16:28:23.469Z,13.10
2022-08-11T16:30:53.459Z,13.20
2022-08-11T16:33:51.254Z,13.50
2022-08-11T16:36:33.079Z,13.60
2022-08-11T16:39:01.514Z,13.80
2022-08-11T16:41:50.884Z,14.00
2022-08-11T16:44:38.552Z,14.20
2022-08-11T16:47:13.161Z,14.30
2022-08-11T16:49:52.190Z,14.60
2022-08-11T16:52:21.199Z,14.70
2022-08-11T16:54:48.542Z,14.70
2022-08-11T16:57:43.065Z,14.90
2022-08-11T17:00:12.713Z,15.10
2022-08-11T17:03:10.229Z,15.20
2022-08-11T17:06:03.063Z,15.50
2022-08-11T17:08:56.739Z,15.50
2022-08-11T17:11:46.850Z,15.80
2022-08-11T17:14:35.785Z,16.00
2022-08-11T17:17:12.784Z,16.10
2022-08-11T17:20:41.240Z,16.40
2022-08-11T17:22:57.689Z,16.40
2022-08-11T17:25:28.718Z,16.50
2022-08-11T17:27:59.616Z,16.80
2022-08-11T17:30:49.098Z,16.90
2022-08-11T17:33:34.673Z,17.20
2022-08-11T17:36:02.816Z,17.20
2022-08-11T17:38:30.545Z,17.40
2022-08-11T17:41:23.781Z,17.60
2022-08-11T17:44:12.622Z,17.90
2022-08-11T17:47:05.217Z,17.90
2022-08-11T17:49:37.713Z,17.90
2022-08-11T17:52:25.011Z,18.10
2022-08-11T17:55:13.440Z,17.30
2022-08-11T17:58:00.232Z,18.20
2022-08-11T18:00:27.829Z,18.40
2022-08-11T18:03:15.003Z,18.50
2022-08-11T18:05:44.527Z,19.10
2022-08-11T18:08:32.370Z,18.90
2022-08-11T18:12:05.837Z,19.00
2022-08-11T18:14:27.493Z,19.20
2022-08-11T18:17:13.442Z,19.40
2022-08-11T18:20:02.139Z,19.40
2022-08-11T18:22:53.330Z,19.50
2022-08-11T18:26:07.438Z,19.70
2022-08-11T18:29:06.370Z,19.80
2022-08-11T18:31:55.647Z,20.20
2022-08-11T18:34:49.207Z,20.20
2022-08-11T18:37:45.498Z,20.40
2022-08-11T18:40:42.853Z,20.40
2022-08-11T18:43:30.375Z,20.70
2022-08-11T18:46:26.072Z,20.70
2022-08-11T18:49:17.121Z,21.00
2022-08-11T18:52:11.079Z,21.00
2022-08-11T18:54:59.691Z,21.20
2022-08-11T18:57:53.991Z,21.20
2022-08-11T19:00:48.115Z,21.40
2022-08-11T19:03:43.382Z,21.70
2022-08-11T19:06:40.545Z,21.70
2022-08-11T19:09:31.803Z,21.90
2022-08-11T19:12:19.290Z,22.00
2022-08-11T19:15:08.868Z,22.10
2022-08-11T19:17:59.009Z,22.30
2022-08-11T19:20:46.935Z,22.40
2022-08-11T19:23:39.559Z,22.60
2022-08-11T19:26:26.655Z,22.70
2022-08-11T19:30:07.316Z,23.30
2022-08-11T19:32:23.935Z,23.00
2022-08-11T19:35:10.974Z,23.00
2022-08-11T19:37:58.950Z,23.20
2022-08-11T19:40:57.896Z,23.40
2022-08-11T19:43:59.270Z,23.50
2022-08-11T19:46:58.315Z,23.70
2022-08-11T19:49:46.609Z,24.10
2022-08-11T19:52:33.630Z,23.90
2022-08-11T19:55:24.582Z,24.20
2022-08-11T19:58:16.217Z,24.20
2022-08-11T20:01:16.554Z,24.30
2022-08-11T20:04:15.297Z,24.60
2022-08-11T20:07:15.607Z,24.70
2022-08-11T20:10:06.404Z,24.80
2022-08-11T20:13:00.651Z,24.90
2022-08-11T20:15:50.221Z,25.10
2022-08-11T20:18:39.078Z,25.00
2022-08-11T20:21:43.824Z,25.20
2022-08-11T20:24:39.430Z,25.40
2022-08-11T20:27:28.042Z,25.50
2022-08-11T20:30:18.565Z,25.60
2022-08-11T20:33:19.315Z,25.80
2022-08-11T20:36:18.315Z,25.90
2022-08-11T20:39:11.495Z,26.00
2022-08-11T20:42:07.096Z,26.10
2022-08-11T20:45:04.790Z,26.20
2022-08-11T20:48:02.311Z,26.40
2022-08-11T20:50:54.203Z,26.40
2022-08-11T20:53:47.877Z,26.60
2022-08-11T20:56:44.670Z,26.60
2022-08-11T20:59:56.278Z,26.80
2022-08-11T21:02:54.286Z,26.90
2022-08-11T21:06:10.399Z,27.00
2022-08-11T21:08:53.434Z,26.90
2022-08-11T21:11:40.996Z,27.20
2022-08-11T21:14:32.440Z,27.20
2022-08-11T21:17:27.687Z,27.30
2022-08-11T21:20:20.358Z,27.50
2022-08-11T21:23:19.848Z,27.70
2022-08-11T21:26:29.660Z,27.80
2022-08-11T21:29:18.008Z,28.00
2022-08-11T21:32:04.529Z,27.90
2022-08-11T21:34:51.354Z,27.90
2022-08-11T21:37:37.607Z,28.20
2022-08-11T21:40:26.172Z,28.20
2022-08-11T21:43:13.120Z,28.40
2022-08-11T21:46:01.572Z,28.50
2022-08-11T21:48:47.931Z,28.60
2022-08-11T21:51:33.564Z,28.60
2022-08-11T21:54:19.964Z,28.70
2022-08-11T21:57:06.626Z,28.80
2022-08-11T22:00:10.952Z,28.80
2022-08-11T22:02:58.103Z,29.10
2022-08-11T22:05:45.064Z,29.10
2022-08-11T22:08:31.612Z,29.20
2022-08-11T22:11:32.371Z,29.30
2022-08-11T22:14:22.286Z,29.30
2022-08-11T22:17:08.750Z,29.50
2022-08-11T22:20:01.149Z,29.50
2022-08-11T22:22:53.523Z,29.70
2022-08-11T22:25:44.228Z,29.60
2022-08-11T22:28:37.512Z,29.10
2022-08-11T22:31:24.481Z,29.70
2022-08-11T22:34:09.858Z,29.90
2022-08-11T22:36:56.354Z,29.90
2022-08-11T22:39:44.108Z,30.00
2022-08-11T22:42:33.685Z,30.00
2022-08-11T22:45:28.760Z,30.00
2022-08-11T22:48:16.780Z,30.00
2022-08-11T22:51:03.600Z,30.10
2022-08-11T22:53:57.808Z,30.20
2022-08-11T22:56:46.440Z,30.20
2022-08-11T22:59:32.978Z,30.30
2022-08-11T23:02:18.999Z,30.50
2022-08-11T23:05:05.912Z,30.60
2022-08-11T23:07:52.935Z,30.80
2022-08-11T23:10:40.428Z,30.80
2022-08-11T23:13:29.666Z,30.80
2022-08-11T23:16:16.593Z,31.20
2022-08-11T23:19:04.087Z,31.30
2022-08-11T23:29:05.084Z,31.30
2022-08-11T23:31:53.298Z,31.40
2022-08-11T23:35:04.043Z,30.90
2022-08-11T23:37:47.860Z,31.60
2022-08-11T23:40:33.735Z,31.70
2022-08-11T23:43:19.869Z,31.90
2022-08-11T23:46:05.315Z,32.10
2022-08-11T23:48:51.757Z,32.20
2022-08-11T23:51:40.656Z,32.40
2022-08-11T23:54:28.493Z,32.50
2022-08-11T23:57:14.371Z,32.50
2022-08-11T23:59:59.715Z,32.70
